Airfield :
LOGIN :

Register | Disclaimer

   EN    FR    IT 

 










Legend :    VFR   Marginal VFR   IFR   Intensive IFR   Very Intensive IFR
Visi :
Ceiling :
>= 8 km
>= 3000ft
5 to 8 km
1000 to 3000 ft
1500m to 5 km
500 to 1000 ft
800 to 1500m
200 to 500 ft
< 800m
< 200 ft
Symbols :   Thunderstorms  Fog  Heavy snow  Heavy precipitations  Wind > 20 kt
SIGMETs :     Misc.  Thunderstorms  Icing  Turbulence  Mountain Waves  Volcanic Ashes






- Airport Elevation : 375 ft
- IATA code : MST


EHBK - Maastricht Aachen

CURRENT METAR :
  • 200225Z AUTO 21015KT 9999 BKN015 OVC021 07/05 Q1018

EXPIRED METARs :
  • 200155Z AUTO 20014KT 9999 FEW012 OVC049 07/05 Q1018 REDZ
  • 200125Z AUTO 20013KT 9999 -DZ FEW015 SCT022 OVC027 06/05 Q1018
  • 200055Z AUTO 20013KT 160V230 9999 -RA FEW011 BKN015 OVC023 06/05 Q1019
  • 200025Z AUTO 20013KT 9999 FEW014 OVC017 06/05 Q1019 REDZ
  • 192355Z AUTO 20014KT 9999 -RADZ OVC016 06/04 Q1019

TAF TAF EHBK
Valid from the 20 at 00:00 until the 21 at 06:00 UTC


192244Z 2000/2106 21012KT 9999 BKN015
TEMPO 2000/2008 7000 -RADZ
PROB30
TEMPO 2001/2007 4000 DZRA BKN014
BECMG 2008/2011 22017G27KT SCT025
BECMG 2017/2019 7000 RA BKN014
BECMG 2019/2022 27014KT 9999 NSW FEW025
TEMPO 2019/2021 26028G42KT 2000 +RA +SHRA BKN008 FEW015TCU
PROB30
TEMPO 2021/2023 6000 SHRA FEW020CB
BECMG 2101/2104 24012KT



MET'MAP, your aeronautical weather chart ! - Copyright ORBIFLY December 2007 - Disclaimer

ORBIFLY MET'MAP TEAM :

Programming & Development : Alexandra Zaïnal
Concept & original design : Baudouin d'Aumeries
Assistance for programming : Marc-Olivier Méhu
Technical & hardware support : Manuel Goepfert

Contact : metmap@orbifly.com




SOURCES & CREDITS :

   NOAA